Accueil
METAR-TAF:

METAR-TAF

Aéroports :

Aéroport de Maastricht-Aix-la-Chapelle

Maastricht Aix-la-Chapelle, Pays-Bas

latitude: 50-55N, longitude: 005-47E, altitude: 114 m

Observation

Le bulletin a été fait il y a 7 minutes, à 22:55 UTC
Vent 1 kt de nord
Température 16°C
Humidité 72%
Pression 1021 hPa
Visibilité 10 km ou plus

METAR: EHBK 172255Z AUTO 35001KT 9999 NSC 16/11 Q1021

Heure: 01:02 (23:02 UTC)

Prévision

Le bulletin a été fait il y a 5 heures et 48 minutes, à 17:14 UTC
Prévision valable du 17 à 18 UTC au 18 à 24 UTC
Vent 6 kt de nord/nord-ouest
Visibilité 10 km ou plus
Nuages épars à une hauteur de 4000 ft
Evoluant progressivement
du 18 à 08 UTC au 18 à 11 UTC
Vent 12 kt de sud-ouest
Evoluant progressivement
du 18 à 17 UTC au 18 à 20 UTC
Vent 3 kt de direction variable

TAF: EHBK 171714Z 1718/1824 33006KT 9999 SCT040 BECMG 1808/1811 23012KT BECMG 1817/1820 VRB03KT

Observations et prévisions météorologiques de plus de 4000 aéroports (messages METAR et TAF).

Les stations disponibles sont représentées par des disques jaunes et rouges sur la carte.

Passer la souris dessus pour voir le nom de la station.

Cliquer dessus pour voir les observations et prévisions météorologiques.

Pour changer de carte: cliquez sur les boutons verts avec une croix noire pour zoomer, sur le bouton vert avec un tiret pour effectuer un zoom arrière, ou sur les flèches vertes pour les cartes adjacentes.


METAR-TAF: